createdAt,value
2023-02-14T00:01:25.484Z,2.80
2023-02-14T00:03:54.714Z,3.50
2023-02-14T00:06:22.559Z,3.57
2023-02-14T00:08:54.074Z,3.83
2023-02-14T00:11:22.144Z,4.03
2023-02-14T00:14:03.943Z,3.97
2023-02-14T00:16:31.852Z,3.60
2023-02-14T00:19:06.797Z,3.40
2023-02-14T00:21:36.589Z,3.63
2023-02-14T00:24:07.471Z,3.93
2023-02-14T00:26:35.609Z,4.60
2023-02-14T00:29:03.388Z,4.30
2023-02-14T00:31:32.174Z,5.07
2023-02-14T00:34:01.437Z,3.73
2023-02-14T00:36:29.502Z,4.10
2023-02-14T00:38:57.404Z,4.53
2023-02-14T00:41:25.193Z,5.93
2023-02-14T00:43:54.484Z,5.07
2023-02-14T00:46:24.122Z,5.13
2023-02-14T00:48:52.629Z,4.33
2023-02-14T00:51:22.400Z,4.63
2023-02-14T00:53:51.408Z,4.73
2023-02-14T00:56:20.004Z,4.60
2023-02-14T00:58:48.268Z,4.97
2023-02-14T01:01:17.502Z,4.13
2023-02-14T01:03:45.536Z,4.77
2023-02-14T01:06:13.336Z,5.07
2023-02-14T01:08:42.548Z,4.17
2023-02-14T01:11:13.622Z,4.00
2023-02-14T01:13:42.317Z,5.53
2023-02-14T01:16:12.496Z,4.57
2023-02-14T01:18:41.347Z,4.17
2023-02-14T01:21:14.190Z,4.30
2023-02-14T01:23:43.859Z,4.67
2023-02-14T01:26:12.363Z,4.87
2023-02-14T01:28:42.013Z,2.97
2023-02-14T01:31:11.979Z,3.40
2023-02-14T01:33:40.893Z,3.07
2023-02-14T01:36:15.496Z,4.03
2023-02-14T01:38:45.312Z,2.63
2023-02-14T01:41:13.767Z,3.03
2023-02-14T01:43:52.718Z,3.80
2023-02-14T01:46:21.171Z,3.43
2023-02-14T01:48:50.150Z,3.30
2023-02-14T01:51:20.853Z,3.50
2023-02-14T01:53:52.190Z,4.20
2023-02-14T01:56:24.460Z,3.13
2023-02-14T01:58:54.964Z,3.43
2023-02-14T02:01:23.580Z,4.03
2023-02-14T02:03:54.861Z,4.37
2023-02-14T02:06:27.443Z,3.97
2023-02-14T02:09:05.963Z,3.90
2023-02-14T02:11:34.259Z,4.30
2023-02-14T02:14:01.996Z,5.30
2023-02-14T02:16:54.463Z,5.53
2023-02-14T02:20:04.391Z,5.00
2023-02-14T02:22:59.666Z,4.73
2023-02-14T02:25:52.042Z,4.63
2023-02-14T02:28:48.688Z,4.13
2023-02-14T02:31:42.846Z,4.63
2023-02-14T02:34:34.464Z,4.23
2023-02-14T02:37:15.370Z,3.47
2023-02-14T02:39:52.201Z,3.37
2023-02-14T02:42:32.911Z,4.27
2023-02-14T02:45:10.072Z,3.77
2023-02-14T02:47:43.425Z,4.83
2023-02-14T02:50:38.707Z,4.37
2023-02-14T02:53:16.465Z,5.13
2023-02-14T02:56:08.423Z,3.67
2023-02-14T02:58:40.547Z,4.00
2023-02-14T03:01:12.730Z,4.00
2023-02-14T03:04:00.235Z,4.27
2023-02-14T03:06:28.055Z,4.40
2023-02-14T03:08:57.303Z,4.63
2023-02-14T03:11:26.635Z,4.30
2023-02-14T03:14:09.330Z,4.13
2023-02-14T03:16:51.404Z,4.80
2023-02-14T03:19:32.135Z,4.17
2023-02-14T03:22:07.386Z,4.60
2023-02-14T03:24:45.395Z,4.87
2023-02-14T03:27:19.487Z,4.57
2023-02-14T03:29:57.288Z,5.07
2023-02-14T03:32:32.963Z,6.07
2023-02-14T03:35:08.585Z,5.73
2023-02-14T03:37:43.032Z,5.27
2023-02-14T03:40:16.631Z,4.30
2023-02-14T03:42:49.617Z,5.40
2023-02-14T03:45:23.290Z,4.93
2023-02-14T03:47:52.693Z,4.20
2023-02-14T03:50:21.492Z,5.30
2023-02-14T03:52:52.838Z,3.83
2023-02-14T03:55:28.884Z,4.10
2023-02-14T03:58:04.488Z,3.80
2023-02-14T04:00:37.914Z,3.80
2023-02-14T04:03:12.041Z,3.70
2023-02-14T04:05:43.512Z,3.57
2023-02-14T04:08:12.466Z,4.33
2023-02-14T04:10:43.162Z,4.93
2023-02-14T04:13:11.144Z,3.47
2023-02-14T04:15:39.283Z,5.17
2023-02-14T04:18:24.636Z,5.17
2023-02-14T04:20:52.436Z,3.53
2023-02-14T04:23:20.186Z,3.80
2023-02-14T04:25:49.389Z,3.60
2023-02-14T04:28:17.296Z,4.43
2023-02-14T04:30:45.314Z,3.67
2023-02-14T04:33:13.239Z,3.67
2023-02-14T04:35:41.321Z,3.90
2023-02-14T04:38:09.063Z,4.23
2023-02-14T04:40:37.034Z,3.77
2023-02-14T04:43:07.459Z,4.20
2023-02-14T04:45:35.464Z,4.13
2023-02-14T04:48:03.225Z,4.13
2023-02-14T04:50:31.193Z,3.77
2023-02-14T04:52:58.917Z,3.40
2023-02-14T04:55:26.967Z,4.60
2023-02-14T04:57:54.931Z,4.47
2023-02-14T05:00:24.468Z,4.07
2023-02-14T05:02:52.209Z,3.80
2023-02-14T05:05:20.138Z,4.80
2023-02-14T05:07:48.639Z,4.20
2023-02-14T05:10:16.512Z,4.83
2023-02-14T05:12:44.567Z,4.70
2023-02-14T05:15:12.481Z,4.87
2023-02-14T05:17:41.628Z,5.20
2023-02-14T05:20:10.427Z,5.40
2023-02-14T05:22:38.265Z,6.07
2023-02-14T05:25:06.553Z,6.47
2023-02-14T05:27:34.420Z,5.77
2023-02-14T05:30:02.374Z,5.73
2023-02-14T05:32:30.204Z,5.03
2023-02-14T05:35:01.122Z,5.63
2023-02-14T05:37:29.075Z,5.13
2023-02-14T05:39:56.885Z,5.63
2023-02-14T05:42:24.650Z,6.27
2023-02-14T05:44:52.407Z,5.50
2023-02-14T05:47:20.179Z,6.07
2023-02-14T05:49:48.057Z,4.53
2023-02-14T05:52:17.278Z,5.80
2023-02-14T05:54:45.003Z,4.47
2023-02-14T05:57:12.982Z,5.17
2023-02-14T05:59:43.807Z,5.53
2023-02-14T06:02:11.884Z,4.47
2023-02-14T06:04:39.703Z,5.47
2023-02-14T06:07:07.482Z,5.17
2023-02-14T06:09:36.569Z,4.97
2023-02-14T06:12:04.427Z,4.67
2023-02-14T06:14:32.203Z,7.07
2023-02-14T06:17:00.057Z,4.13
2023-02-14T06:19:28.228Z,5.90
2023-02-14T06:21:55.969Z,4.90
2023-02-14T06:24:23.957Z,4.07
2023-02-14T06:26:53.049Z,5.00
2023-02-14T06:29:21.131Z,6.33
2023-02-14T06:31:49.233Z,4.60
2023-02-14T06:34:17.248Z,4.20
2023-02-14T06:36:45.455Z,5.40
2023-02-14T06:39:13.288Z,5.33
2023-02-14T06:41:41.125Z,4.00
2023-02-14T06:44:10.503Z,4.67
2023-02-14T06:46:38.325Z,5.30
2023-02-14T06:49:06.155Z,4.30
2023-02-14T06:51:34.213Z,4.83
2023-02-14T06:54:02.415Z,4.43
2023-02-14T06:56:30.457Z,4.60
2023-02-14T06:58:58.332Z,4.83
2023-02-14T07:01:27.507Z,3.83
2023-02-14T07:03:55.306Z,4.30
2023-02-14T07:06:23.309Z,6.07
2023-02-14T07:08:51.468Z,4.57
2023-02-14T07:11:19.390Z,4.90
2023-02-14T07:13:49.340Z,4.70
2023-02-14T07:16:17.300Z,4.60
2023-02-14T07:18:46.608Z,5.60
2023-02-14T07:21:14.384Z,5.03
2023-02-14T07:23:42.199Z,4.00
2023-02-14T07:26:09.951Z,4.50
2023-02-14T07:28:37.762Z,4.97
2023-02-14T07:31:06.132Z,5.43
2023-02-14T07:33:33.939Z,4.07
2023-02-14T07:36:07.066Z,4.33
2023-02-14T07:38:35.260Z,4.70
2023-02-14T07:41:03.179Z,3.87
2023-02-14T07:43:31.247Z,4.67
2023-02-14T07:46:01.086Z,3.93
2023-02-14T07:48:31.903Z,4.13
2023-02-14T07:51:01.408Z,4.30
2023-02-14T07:53:30.923Z,4.17
2023-02-14T07:55:58.707Z,5.10
2023-02-14T07:58:26.474Z,4.33
2023-02-14T08:00:54.215Z,4.67
2023-02-14T08:03:21.954Z,4.40
2023-02-14T08:05:56.944Z,4.17
2023-02-14T08:08:26.983Z,4.73
2023-02-14T08:10:56.253Z,3.90
2023-02-14T08:13:24.421Z,4.80
2023-02-14T08:16:07.658Z,4.23
2023-02-14T08:18:37.994Z,4.23
2023-02-14T08:21:07.320Z,4.90
2023-02-14T08:23:35.705Z,4.93
2023-02-14T08:26:05.368Z,4.40
2023-02-14T08:28:33.515Z,5.00
2023-02-14T08:31:01.988Z,5.57
2023-02-14T08:33:30.377Z,4.20
2023-02-14T08:35:58.257Z,4.03
2023-02-14T08:38:26.159Z,4.27
2023-02-14T08:40:53.988Z,5.37
2023-02-14T08:43:23.123Z,3.67
2023-02-14T08:45:53.756Z,4.90
2023-02-14T08:48:23.692Z,4.63
2023-02-14T08:50:51.506Z,3.00
2023-02-14T08:53:19.639Z,4.30
2023-02-14T08:55:47.612Z,3.93
2023-02-14T08:58:15.495Z,4.17
2023-02-14T09:00:44.634Z,4.37
2023-02-14T09:03:12.816Z,4.17
2023-02-14T09:05:40.880Z,4.43
2023-02-14T09:08:08.817Z,4.03
2023-02-14T09:10:37.428Z,3.67
2023-02-14T09:13:05.335Z,3.77
2023-02-14T09:15:33.101Z,4.23
2023-02-14T09:18:02.289Z,3.53
2023-02-14T09:20:30.048Z,4.13
2023-02-14T09:22:57.909Z,4.13
2023-02-14T09:25:25.700Z,4.57
2023-02-14T09:27:53.441Z,3.30
2023-02-14T09:30:21.320Z,3.67
2023-02-14T09:32:49.195Z,3.57
2023-02-14T09:35:18.368Z,4.53
2023-02-14T09:37:46.170Z,3.57
2023-02-14T09:40:16.466Z,4.17
2023-02-14T09:43:01.981Z,3.83
2023-02-14T09:45:31.872Z,3.60
2023-02-14T09:48:04.638Z,4.27
2023-02-14T09:50:40.244Z,4.27
2023-02-14T09:53:18.141Z,3.47
2023-02-14T09:55:52.137Z,4.37
2023-02-14T09:58:24.210Z,4.60
2023-02-14T10:01:00.486Z,4.30
2023-02-14T10:03:46.967Z,4.63
2023-02-14T10:06:29.839Z,3.50
2023-02-14T10:09:07.507Z,2.97
2023-02-14T10:11:36.218Z,3.90
2023-02-14T10:14:12.076Z,3.57
2023-02-14T10:16:44.730Z,4.20
2023-02-14T10:19:20.535Z,2.97
2023-02-14T10:21:55.691Z,4.07
2023-02-14T10:24:28.957Z,3.03
2023-02-14T10:27:03.171Z,4.00
2023-02-14T10:29:31.115Z,3.90
2023-02-14T10:32:02.039Z,3.93
2023-02-14T10:34:38.161Z,3.77
2023-02-14T10:37:31.071Z,3.17
2023-02-14T10:40:17.593Z,3.53
2023-02-14T10:42:54.277Z,3.80
2023-02-14T10:45:29.146Z,4.03
2023-02-14T10:48:03.248Z,3.47
2023-02-14T10:50:37.907Z,3.43
2023-02-14T10:53:17.343Z,3.63
2023-02-14T10:55:50.635Z,3.20
2023-02-14T10:58:21.710Z,4.13
2023-02-14T11:00:59.912Z,3.03
2023-02-14T11:03:30.180Z,3.33
2023-02-14T11:05:58.044Z,3.13
2023-02-14T11:08:29.728Z,2.87
2023-02-14T11:11:04.205Z,3.80
2023-02-14T11:13:35.522Z,2.87
2023-02-14T11:16:05.987Z,2.90
2023-02-14T11:18:35.961Z,3.30
2023-02-14T11:21:10.094Z,3.87
2023-02-14T11:23:42.130Z,2.80
2023-02-14T11:26:22.316Z,3.70
2023-02-14T11:28:57.412Z,4.17
2023-02-14T11:31:27.951Z,3.33
2023-02-14T11:33:56.069Z,3.50
2023-02-14T11:36:24.787Z,2.50
2023-02-14T11:39:04.152Z,3.17
2023-02-14T11:41:48.337Z,3.00
2023-02-14T11:44:22.513Z,3.73
2023-02-14T11:46:53.496Z,3.63
2023-02-14T11:49:31.272Z,3.97
2023-02-14T11:52:01.176Z,3.07
2023-02-14T11:54:34.896Z,3.63
2023-02-14T11:57:08.676Z,4.27
2023-02-14T11:59:41.806Z,3.80
2023-02-14T12:02:28.443Z,3.10
2023-02-14T12:04:58.540Z,3.57
2023-02-14T12:07:30.745Z,3.23
2023-02-14T12:10:20.969Z,3.57
2023-02-14T12:12:54.187Z,4.33
2023-02-14T12:15:30.177Z,3.30
2023-02-14T12:18:10.297Z,3.60
2023-02-14T12:20:45.064Z,3.03
2023-02-14T12:23:20.218Z,3.57
2023-02-14T12:25:55.430Z,3.60
2023-02-14T12:28:31.370Z,4.03
2023-02-14T12:30:59.764Z,3.23
2023-02-14T12:33:28.426Z,3.90
2023-02-14T12:36:04.442Z,3.47
2023-02-14T12:38:43.508Z,2.47
2023-02-14T12:41:30.927Z,3.10
2023-02-14T12:44:02.258Z,4.03
2023-02-14T12:46:59.022Z,3.60
2023-02-14T12:49:49.477Z,3.20
2023-02-14T12:52:39.106Z,3.27
2023-02-14T12:55:35.167Z,3.97
2023-02-14T12:58:16.344Z,3.60
2023-02-14T13:00:50.681Z,3.43
2023-02-14T13:03:36.236Z,2.97
2023-02-14T13:06:10.365Z,3.00
2023-02-14T13:09:01.161Z,3.47
2023-02-14T13:11:40.346Z,3.27
2023-02-14T13:14:27.370Z,2.97
2023-02-14T13:16:58.288Z,2.67
2023-02-14T13:19:36.849Z,2.90
2023-02-14T13:22:07.371Z,3.50
2023-02-14T13:24:40.533Z,2.93
2023-02-14T13:27:13.778Z,3.07
2023-02-14T13:29:47.826Z,3.13
2023-02-14T13:32:20.318Z,3.17
2023-02-14T13:34:50.026Z,3.47
2023-02-14T13:37:21.527Z,3.47
2023-02-14T13:39:52.520Z,3.57
2023-02-14T13:42:59.322Z,3.13
2023-02-14T13:45:53.984Z,3.17
2023-02-14T13:48:24.814Z,3.27
2023-02-14T13:50:56.212Z,3.23
2023-02-14T13:53:36.661Z,3.80
2023-02-14T13:56:07.221Z,3.50
2023-02-14T13:58:36.165Z,3.43
2023-02-14T14:01:31.569Z,2.63
2023-02-14T14:04:01.400Z,2.33
2023-02-14T14:06:29.819Z,3.43
2023-02-14T14:08:58.262Z,3.70
2023-02-14T14:12:01.807Z,2.53
2023-02-14T14:14:36.128Z,2.67
2023-02-14T14:17:20.421Z,2.83
2023-02-14T14:19:48.680Z,2.33
2023-02-14T14:22:17.613Z,3.23
2023-02-14T14:24:54.970Z,3.70
2023-02-14T14:27:25.737Z,3.70
2023-02-14T14:29:55.903Z,2.70
2023-02-14T14:32:30.469Z,3.83
2023-02-14T14:35:00.840Z,3.70
2023-02-14T14:37:30.894Z,2.87
2023-02-14T14:40:00.216Z,2.77
2023-02-14T14:42:30.831Z,3.03
2023-02-14T14:45:02.032Z,3.17
2023-02-14T14:47:38.860Z,3.03
2023-02-14T14:50:10.181Z,3.13
2023-02-14T14:52:42.227Z,2.87
2023-02-14T14:55:17.399Z,3.03
2023-02-14T14:57:50.868Z,2.57
2023-02-14T15:00:22.640Z,3.30
2023-02-14T15:03:00.423Z,3.37
2023-02-14T15:05:32.012Z,3.10
2023-02-14T15:08:13.324Z,3.37
2023-02-14T15:10:41.541Z,3.73
2023-02-14T15:13:32.164Z,3.00
2023-02-14T15:16:02.769Z,3.30
2023-02-14T15:18:32.901Z,3.10
2023-02-14T15:21:01.603Z,3.07
2023-02-14T15:23:29.619Z,3.40
2023-02-14T15:25:57.396Z,3.00
2023-02-14T15:28:30.564Z,2.73
2023-02-14T15:31:00.890Z,3.57
2023-02-14T15:33:30.629Z,3.73
2023-02-14T15:36:04.365Z,4.30
2023-02-14T15:38:33.825Z,3.37
2023-02-14T15:41:02.538Z,3.67
2023-02-14T15:43:32.811Z,2.43
2023-02-14T15:46:15.293Z,3.07
2023-02-14T15:48:43.771Z,3.73
2023-02-14T15:51:20.915Z,2.97
2023-02-14T15:53:53.452Z,2.77
2023-02-14T15:56:24.968Z,3.07
2023-02-14T15:59:00.801Z,3.07
2023-02-14T16:01:29.248Z,4.03
2023-02-14T16:04:00.356Z,4.67
2023-02-14T16:06:39.074Z,5.40
2023-02-14T16:09:23.713Z,4.40
2023-02-14T16:11:52.672Z,3.83
2023-02-14T16:14:35.983Z,2.73
2023-02-14T16:17:05.850Z,3.23
2023-02-14T16:19:39.555Z,3.60
2023-02-14T16:22:11.323Z,3.53
2023-02-14T16:24:40.232Z,3.97
2023-02-14T16:27:08.821Z,3.20
2023-02-14T16:29:37.335Z,2.90
2023-02-14T16:32:16.865Z,2.83
2023-02-14T16:34:47.214Z,3.93
2023-02-14T16:37:23.031Z,3.10
2023-02-14T16:39:52.435Z,3.70
2023-02-14T16:42:20.392Z,3.63
2023-02-14T16:44:48.588Z,3.20
2023-02-14T16:47:18.322Z,2.90
2023-02-14T16:49:46.740Z,3.40
2023-02-14T16:52:17.260Z,6.63
2023-02-14T16:54:46.551Z,3.57
2023-02-14T16:57:20.000Z,3.70
2023-02-14T16:59:48.069Z,3.13
2023-02-14T17:02:16.493Z,5.20
2023-02-14T17:04:44.761Z,3.97
2023-02-14T17:07:13.606Z,6.00
2023-02-14T17:09:45.004Z,4.53
2023-02-14T17:12:19.504Z,5.43
2023-02-14T17:14:50.844Z,4.57
2023-02-14T17:17:19.139Z,3.87
2023-02-14T17:19:46.937Z,3.63
2023-02-14T17:22:16.024Z,3.90
2023-02-14T17:24:43.775Z,3.70
2023-02-14T17:27:11.602Z,5.90
2023-02-14T17:29:40.792Z,3.70
2023-02-14T17:32:11.895Z,4.40
2023-02-14T17:34:40.678Z,4.37
2023-02-14T17:37:08.520Z,3.33
2023-02-14T17:39:36.228Z,3.27
2023-02-14T17:42:04.104Z,2.97
2023-02-14T17:44:35.812Z,3.33
2023-02-14T17:47:05.292Z,3.97
2023-02-14T17:49:33.403Z,3.30
2023-02-14T17:52:01.248Z,3.90
2023-02-14T17:54:28.954Z,3.03
2023-02-14T17:56:56.705Z,2.70
2023-02-14T17:59:24.822Z,3.47
2023-02-14T18:01:52.890Z,2.73
2023-02-14T18:04:22.036Z,2.63
2023-02-14T18:06:50.082Z,3.77
2023-02-14T18:09:19.248Z,3.10
2023-02-14T18:11:47.143Z,2.80
2023-02-14T18:14:15.215Z,2.97
2023-02-14T18:16:43.686Z,2.97
2023-02-14T18:19:15.660Z,3.20
2023-02-14T18:21:46.342Z,3.00
2023-02-14T18:24:15.464Z,3.93
2023-02-14T18:26:44.401Z,3.43
2023-02-14T18:29:12.956Z,3.10
2023-02-14T18:31:42.759Z,2.20
2023-02-14T18:34:10.943Z,2.93
2023-02-14T18:36:41.428Z,2.83
2023-02-14T18:39:11.020Z,3.37
2023-02-14T18:41:39.106Z,3.67
2023-02-14T18:44:07.181Z,3.40
2023-02-14T18:46:36.528Z,3.90
2023-02-14T18:49:07.095Z,3.53
2023-02-14T18:51:37.219Z,3.87
2023-02-14T18:54:06.069Z,3.40
2023-02-14T18:56:36.962Z,3.43
2023-02-14T18:59:07.279Z,3.33
2023-02-14T19:01:37.252Z,3.53
2023-02-14T19:04:08.611Z,3.03
2023-02-14T19:06:36.901Z,3.27
2023-02-14T19:09:08.624Z,3.77
2023-02-14T19:11:38.517Z,3.33
2023-02-14T19:14:09.991Z,4.20
2023-02-14T19:16:39.977Z,4.97
2023-02-14T19:19:08.392Z,4.70
2023-02-14T19:21:36.605Z,4.20
2023-02-14T19:24:07.420Z,4.50
2023-02-14T19:26:40.313Z,5.33
2023-02-14T19:29:10.541Z,5.00
2023-02-14T19:31:40.838Z,4.90
2023-02-14T19:34:10.235Z,5.53
2023-02-14T19:36:38.261Z,3.97
2023-02-14T19:39:06.511Z,3.23
2023-02-14T19:41:35.629Z,3.50
2023-02-14T19:44:06.689Z,4.20
2023-02-14T19:46:38.068Z,4.17
2023-02-14T19:49:06.186Z,3.10
2023-02-14T19:51:36.213Z,3.90
2023-02-14T19:54:07.235Z,3.67
2023-02-14T19:56:37.489Z,3.30
2023-02-14T19:59:09.392Z,3.77
2023-02-14T20:01:39.999Z,3.20
2023-02-14T20:04:10.156Z,3.27
2023-02-14T20:06:39.019Z,2.87
2023-02-14T20:09:07.738Z,3.63
2023-02-14T20:11:39.255Z,2.70
2023-02-14T20:14:09.832Z,4.33
2023-02-14T20:16:38.343Z,5.03
2023-02-14T20:19:08.523Z,3.90
2023-02-14T20:21:36.301Z,4.60
2023-02-14T20:24:06.073Z,3.77
2023-02-14T20:26:35.997Z,4.00
2023-02-14T20:29:05.225Z,3.03
2023-02-14T20:31:35.188Z,3.00
2023-02-14T20:34:03.961Z,3.27
2023-02-14T20:36:31.848Z,2.77
2023-02-14T20:39:05.759Z,2.83
2023-02-14T20:41:34.963Z,3.10
2023-02-14T20:44:05.038Z,3.00
2023-02-14T20:46:34.535Z,3.57
2023-02-14T20:49:03.052Z,3.57
2023-02-14T20:51:30.785Z,3.80
2023-02-14T20:53:58.793Z,4.00
2023-02-14T20:56:26.655Z,4.53
2023-02-14T20:58:54.409Z,4.90
2023-02-14T21:01:24.556Z,3.90
2023-02-14T21:03:54.560Z,4.80
2023-02-14T21:06:24.549Z,4.73
2023-02-14T21:08:53.126Z,4.53
2023-02-14T21:11:24.099Z,4.33
2023-02-14T21:13:54.667Z,5.10
2023-02-14T21:16:22.827Z,4.87
2023-02-14T21:18:55.185Z,5.03
2023-02-14T21:21:25.876Z,5.70
2023-02-14T21:23:54.307Z,4.77
2023-02-14T21:26:24.838Z,4.63
2023-02-14T21:28:52.692Z,6.20
2023-02-14T21:31:22.148Z,5.27
2023-02-14T21:33:51.562Z,6.10
2023-02-14T21:36:22.676Z,4.37
2023-02-14T21:38:50.990Z,5.53
2023-02-14T21:41:20.812Z,4.43
2023-02-14T21:43:53.132Z,4.47
2023-02-14T21:46:21.617Z,4.00
2023-02-14T21:49:07.005Z,3.87
2023-02-14T21:51:36.379Z,4.80
2023-02-14T21:54:04.273Z,4.70
2023-02-14T21:56:32.413Z,5.23
2023-02-14T21:59:00.319Z,4.57
2023-02-14T22:01:33.668Z,5.33
2023-02-14T22:04:02.672Z,5.10
2023-02-14T22:06:30.704Z,4.50
2023-02-14T22:09:00.576Z,5.50
2023-02-14T22:11:30.393Z,4.80
2023-02-14T22:13:58.851Z,6.03
2023-02-14T22:16:26.693Z,5.13
2023-02-14T22:18:54.429Z,5.00
2023-02-14T22:21:25.194Z,5.53
2023-02-14T22:23:54.009Z,4.20
2023-02-14T22:26:25.596Z,5.50
2023-02-14T22:28:55.805Z,4.33
2023-02-14T22:31:25.784Z,4.23
2023-02-14T22:33:54.224Z,6.10
2023-02-14T22:36:22.258Z,5.80
2023-02-14T22:38:50.353Z,4.93
2023-02-14T22:41:20.544Z,4.67
2023-02-14T22:43:50.167Z,5.13
2023-02-14T22:46:21.678Z,5.17
2023-02-14T22:48:50.710Z,4.23
2023-02-14T22:51:22.456Z,4.97
2023-02-14T22:53:50.964Z,4.63
2023-02-14T22:56:25.188Z,3.50
2023-02-14T22:58:56.026Z,3.67
2023-02-14T23:01:25.050Z,4.30
2023-02-14T23:03:55.363Z,4.17
2023-02-14T23:06:23.683Z,4.33
2023-02-14T23:08:52.125Z,5.23
2023-02-14T23:11:22.211Z,4.60
2023-02-14T23:14:07.610Z,3.83
2023-02-14T23:16:54.638Z,4.77
2023-02-14T23:19:42.332Z,4.43
2023-02-14T23:22:12.515Z,4.70
2023-02-14T23:24:40.527Z,5.60
2023-02-14T23:27:10.126Z,4.57
2023-02-14T23:29:38.345Z,4.30
2023-02-14T23:32:08.572Z,4.10
2023-02-14T23:34:38.862Z,4.60
2023-02-14T23:37:06.658Z,5.80
2023-02-14T23:39:38.499Z,4.87
2023-02-14T23:42:08.834Z,4.67
2023-02-14T23:44:37.268Z,5.07
2023-02-14T23:47:09.534Z,4.03
2023-02-14T23:49:39.045Z,4.63
2023-02-14T23:52:08.091Z,3.87
2023-02-14T23:54:36.607Z,4.80
2023-02-14T23:57:05.135Z,4.17
2023-02-14T23:59:33.007Z,4.63
